Decoded Metar for CYCO (COPPERMINE in NU, CANADA) (IATA:YCO) | Meteo·Mobile Aviation Weather
aviador You're here:

CYCO Decoded Metar

COPPERMINE in NU, CANADA
Report Time2019-07-16 01:00:00
UTC Time2019-07-16 02:05:23
Flight Rules vfr VFR
Wind090° at 06 kt
W.Decomp.*RWY 12: 3.9 kt HW 4.6 kt LCW
Visibility9999 m
Phenomena:N/A
Clouds:Few 025 Hf
Few 110 Hf
Scattered 250 Hf
Expected CloudBase > 3,200 ft AGL from Temp-Dew spread
CeilingNone
Temp18°C (ISA +3)
Dew Point10°C (60% RH)
AAT15.9°C
QNH1002 hPa
Density Alt981 ft
Elevation72 ft
Report Wrong Elevation
Raw Report
CYCO 160100Z 09006KT 15SM FEW025 FEW110 SCT250 18/10 A2959 RMK
CU1AC1CI3 CU TR SLP024 DENSITY ALT 800FT=

Extra information for CYCO:More info

Metar Taf Metar & Taf Last 4 Metars F.Rules Stats Wind Profile Meteogram Temp Stats Airport Information Weather charts Add Link Nearby VenuesMetar ALERT Operation Metar Decoded Social comments